KVAD/VAD METAR and TAF weather

Enter ICAO airport designator
Station Type Date Time Source
KVAD METAR 2019/10/20 18:28 UTC NOAA

KVAD 201828Z AUTO 30004KT 10SM BKN020 22/18 A2993 RMK AO2 CIG 018 RWY18 SLP136 $


Station Type Date Time Source
KVAD Decoded METAR 2019/10/20 18:28 UTC NOAA

Moody Air Force Base, GA, United States (KVAD) 30-58N 083-12W 71M
Oct 20, 2019 - 02:28 PM EDT / 2019.10.20 1828 UTC
Wind: from the WNW (300 degrees) at 5 MPH (4 KT):0
Visibility: 10 mile(s):0
Sky conditions: mostly cloudy
Temperature: 71 F (22 C)
Dew Point: 64 F (18 C)
Relative Humidity: 78%
Pressure (altimeter): 29.93 in. Hg (1013 hPa)
ob: KVAD 201828Z AUTO 30004KT 10SM BKN020 22/18 A2993 RMK AO2 CIG 018 RWY18 SLP136
cycle: 18

Station Type Date Time Source
KVAD TAF 2019/10/18 23:33 UTC NOAA

TAF
AMD KVAD 182230Z 1823/1922 02006KT 9999 BKN100 BKN200 QNH2995INS
BECMG 1823/1824 12009KT 9999 BKN050 641409 642302 QNH2993INS
BECMG 1903/1904 10010G15KT 4800 -RA OVC020 641409 642302 510009 510909 QNH2985INS
BECMG 1907/1908 12015G25KT 3200 RA OVC005 641409 642302 510009 510909 QNH2968INS
TEMPO 1908/1914 17020G30KT 0800 +TSRA OVC015CB
BECMG 1913/1914 15030G40KT 1600 RA OVC005 641409 642302 510009 510909 QNH2980INS
TEMPO 1916/1919 14035G48KT TX21/1920Z TN16/1908Z LAST NO
AMDS AFT 1823 NEXT 2108

Example: see airport list